createdAt,value
2023-05-17T00:00:58.926Z,3.40
2023-05-17T00:01:58.934Z,3.20
2023-05-17T00:02:58.973Z,3.60
2023-05-17T00:03:58.898Z,3.50
2023-05-17T00:04:59.068Z,4.20
2023-05-17T00:05:58.968Z,4.20
2023-05-17T00:06:58.913Z,4.40
2023-05-17T00:07:58.866Z,4.10
2023-05-17T00:08:58.857Z,4.30
2023-05-17T00:09:58.858Z,4.10
2023-05-17T00:10:58.848Z,3.80
2023-05-17T00:11:58.874Z,4.20
2023-05-17T00:12:58.826Z,4.10
2023-05-17T00:13:58.828Z,4.50
2023-05-17T00:14:58.821Z,4.50
2023-05-17T00:15:58.843Z,4.20
2023-05-17T00:16:58.911Z,4.00
2023-05-17T00:17:58.842Z,3.90
2023-05-17T00:18:58.917Z,4.30
2023-05-17T00:19:58.785Z,4.10
2023-05-17T00:20:58.800Z,4.20
2023-05-17T00:21:58.825Z,4.00
2023-05-17T00:22:58.751Z,4.50
2023-05-17T00:23:58.747Z,4.70
2023-05-17T00:24:58.750Z,4.60
2023-05-17T00:25:58.760Z,4.70
2023-05-17T00:26:58.722Z,4.80
2023-05-17T00:27:58.752Z,4.60
2023-05-17T00:28:58.714Z,4.40
2023-05-17T00:29:58.729Z,4.40
2023-05-17T00:30:58.723Z,4.40
2023-05-17T00:31:58.691Z,4.20
2023-05-17T00:32:58.722Z,4.50
2023-05-17T00:33:58.672Z,4.40
2023-05-17T00:34:58.734Z,4.50
2023-05-17T00:35:58.663Z,4.30
2023-05-17T00:36:58.655Z,4.30
2023-05-17T00:37:58.716Z,4.10
2023-05-17T00:38:58.631Z,3.90
2023-05-17T00:39:58.649Z,4.30
2023-05-17T00:40:58.628Z,4.00
2023-05-17T00:41:58.614Z,4.30
2023-05-17T00:42:58.611Z,3.70
2023-05-17T00:43:58.624Z,3.70
2023-05-17T00:44:58.615Z,4.10
2023-05-17T00:45:58.597Z,3.70
2023-05-17T00:46:58.585Z,4.10
2023-05-17T00:47:58.647Z,3.80
2023-05-17T00:48:58.586Z,4.10
2023-05-17T00:49:58.561Z,3.90
2023-05-17T00:50:58.577Z,3.60
2023-05-17T00:51:58.528Z,3.80
2023-05-17T00:52:58.528Z,3.40
2023-05-17T00:53:58.595Z,3.50
2023-05-17T00:54:58.514Z,3.50
2023-05-17T00:55:58.523Z,4.00
2023-05-17T00:56:58.496Z,3.60
2023-05-17T00:57:58.517Z,3.50
2023-05-17T00:58:58.510Z,3.50
2023-05-17T00:59:58.474Z,3.40
2023-05-17T01:00:58.459Z,3.50
2023-05-17T01:01:58.459Z,3.40
2023-05-17T01:02:58.561Z,3.60
2023-05-17T01:03:58.557Z,3.70
2023-05-17T01:04:58.511Z,3.70
2023-05-17T01:05:58.437Z,3.70
2023-05-17T01:06:58.484Z,3.80
2023-05-17T01:07:58.435Z,3.70
2023-05-17T01:08:58.408Z,3.30
2023-05-17T01:09:58.504Z,3.40
2023-05-17T01:10:58.390Z,3.70
2023-05-17T01:11:58.405Z,3.30
2023-05-17T01:12:58.373Z,3.10
2023-05-17T01:13:58.368Z,3.10
2023-05-17T01:14:58.364Z,3.00
2023-05-17T01:15:58.361Z,4.00
2023-05-17T01:16:58.367Z,4.40
2023-05-17T01:17:58.399Z,5.10
2023-05-17T01:18:58.475Z,5.60
2023-05-17T01:19:58.508Z,5.70
2023-05-17T01:20:58.308Z,6.00
2023-05-17T01:21:58.359Z,5.30
2023-05-17T01:22:58.292Z,5.30
2023-05-17T01:23:58.287Z,4.90
2023-05-17T01:24:58.281Z,4.90
2023-05-17T01:25:58.369Z,4.50
2023-05-17T01:26:58.285Z,4.20
2023-05-17T01:27:58.262Z,4.20
2023-05-17T01:28:58.251Z,4.00
2023-05-17T01:29:58.261Z,3.90
2023-05-17T01:30:58.257Z,3.70
2023-05-17T01:31:58.281Z,3.50
2023-05-17T01:32:58.375Z,3.80
2023-05-17T01:33:58.299Z,3.30
2023-05-17T01:34:58.212Z,3.80
2023-05-17T01:35:58.217Z,4.20
2023-05-17T01:36:58.202Z,4.10
2023-05-17T01:37:58.191Z,4.70
2023-05-17T01:38:58.188Z,4.30
2023-05-17T01:39:58.189Z,4.10
2023-05-17T01:40:58.210Z,3.90
2023-05-17T01:41:58.198Z,3.90
2023-05-17T01:42:58.170Z,4.20
2023-05-17T01:43:58.150Z,4.30
2023-05-17T01:44:58.157Z,3.70
2023-05-17T01:45:58.141Z,3.90
2023-05-17T01:46:58.110Z,3.90
2023-05-17T01:47:58.213Z,4.20
2023-05-17T01:48:58.108Z,4.00
2023-05-17T01:49:58.113Z,3.70
2023-05-17T01:50:58.221Z,3.90
2023-05-17T01:51:58.081Z,3.90
2023-05-17T01:52:58.054Z,3.90
2023-05-17T01:53:59.083Z,3.90
2023-05-17T01:54:58.074Z,4.00
2023-05-17T01:55:59.077Z,3.60
2023-05-17T01:56:58.034Z,3.80
2023-05-17T01:57:58.097Z,3.90
2023-05-17T01:58:58.051Z,4.00
2023-05-17T01:59:58.004Z,4.10
2023-05-17T02:00:58.009Z,4.40
2023-05-17T02:01:57.992Z,4.60
2023-05-17T02:02:58.049Z,4.40
2023-05-17T02:03:58.007Z,4.20
2023-05-17T02:04:57.986Z,4.20
2023-05-17T02:05:57.961Z,4.50
2023-05-17T02:06:57.959Z,4.20
2023-05-17T02:07:57.999Z,4.60
2023-05-17T02:08:57.974Z,4.40
2023-05-17T02:09:57.953Z,4.90
2023-05-17T02:10:57.922Z,4.70
2023-05-17T02:11:57.928Z,4.60
2023-05-17T02:12:57.936Z,5.00
2023-05-17T02:13:57.960Z,4.30
2023-05-17T02:14:57.894Z,4.50
2023-05-17T02:15:57.887Z,4.40
2023-05-17T02:16:57.883Z,4.80
2023-05-17T02:17:58.004Z,4.10
2023-05-17T02:18:57.946Z,4.30
2023-05-17T02:19:57.863Z,4.00
2023-05-17T02:20:57.849Z,4.10
2023-05-17T02:21:57.889Z,4.40
2023-05-17T02:22:57.860Z,4.40
2023-05-17T02:23:57.835Z,4.10
2023-05-17T02:24:57.820Z,4.40
2023-05-17T02:25:57.811Z,4.50
2023-05-17T02:26:57.873Z,4.10
2023-05-17T02:27:57.798Z,4.00
2023-05-17T02:28:57.788Z,4.10
2023-05-17T02:29:57.838Z,4.00
2023-05-17T02:30:57.768Z,4.10
2023-05-17T02:31:57.832Z,4.00
2023-05-17T02:32:57.881Z,4.10
2023-05-17T02:33:57.817Z,4.30
2023-05-17T02:34:57.743Z,4.00
2023-05-17T02:35:57.764Z,4.20
2023-05-17T02:36:57.754Z,3.90
2023-05-17T02:37:57.790Z,4.00
2023-05-17T02:38:57.709Z,3.90
2023-05-17T02:39:57.711Z,4.10
2023-05-17T02:40:57.731Z,4.40
2023-05-17T02:41:57.688Z,3.80
2023-05-17T02:42:57.774Z,3.90
2023-05-17T02:43:57.683Z,4.10
2023-05-17T02:44:57.667Z,4.10
2023-05-17T02:45:57.731Z,4.20
2023-05-17T02:46:58.704Z,4.20
2023-05-17T02:47:57.663Z,3.80
2023-05-17T02:48:57.645Z,4.20
2023-05-17T02:49:57.670Z,3.90
2023-05-17T02:50:57.647Z,4.20
2023-05-17T02:51:57.612Z,4.10
2023-05-17T02:52:57.622Z,4.50
2023-05-17T02:53:57.602Z,4.10
2023-05-17T02:54:57.638Z,4.80
2023-05-17T02:55:57.587Z,5.10
2023-05-17T02:56:57.569Z,4.70
2023-05-17T02:57:57.563Z,4.40
2023-05-17T02:58:57.592Z,4.50
2023-05-17T02:59:57.566Z,5.00
2023-05-17T03:00:57.535Z,4.80
2023-05-17T03:01:57.584Z,5.00
2023-05-17T03:02:57.587Z,4.90
2023-05-17T03:03:57.650Z,4.80
2023-05-17T03:04:57.536Z,4.70
2023-05-17T03:05:57.501Z,5.00
2023-05-17T03:06:57.499Z,4.80
2023-05-17T03:07:57.516Z,4.70
2023-05-17T03:08:57.509Z,4.50
2023-05-17T03:09:57.496Z,4.70
2023-05-17T03:10:57.484Z,4.90
2023-05-17T03:11:57.457Z,4.60
2023-05-17T03:12:57.446Z,4.60
2023-05-17T03:13:57.482Z,4.60
2023-05-17T03:14:57.435Z,4.90
2023-05-17T03:15:57.432Z,4.80
2023-05-17T03:16:57.416Z,4.90
2023-05-17T03:17:57.864Z,4.50
2023-05-17T03:18:57.666Z,4.80
2023-05-17T03:19:57.417Z,4.50
2023-05-17T03:20:57.390Z,4.60
2023-05-17T03:21:57.388Z,4.70
2023-05-17T03:22:57.370Z,4.80
2023-05-17T03:23:57.396Z,4.80
2023-05-17T03:24:57.353Z,4.50
2023-05-17T03:25:57.343Z,4.70
2023-05-17T03:26:57.343Z,4.80
2023-05-17T03:27:57.357Z,4.80
2023-05-17T03:28:57.361Z,5.00
2023-05-17T03:29:57.315Z,4.70
2023-05-17T03:30:57.331Z,4.80
2023-05-17T03:31:57.312Z,4.60
2023-05-17T03:32:57.371Z,4.40
2023-05-17T03:33:57.330Z,4.50
2023-05-17T03:34:57.290Z,4.70
2023-05-17T03:35:57.281Z,4.30
2023-05-17T03:36:57.264Z,4.50
2023-05-17T03:37:57.280Z,4.20
2023-05-17T03:38:57.248Z,4.30
2023-05-17T03:39:57.249Z,4.30
2023-05-17T03:40:57.232Z,4.50
2023-05-17T03:41:57.252Z,4.70
2023-05-17T03:42:57.240Z,4.80
2023-05-17T03:43:57.218Z,4.70
2023-05-17T03:44:57.199Z,5.00
2023-05-17T03:45:57.190Z,4.70
2023-05-17T03:46:57.215Z,4.90
2023-05-17T03:47:57.188Z,4.90
2023-05-17T03:48:57.227Z,5.10
2023-05-17T03:49:57.404Z,4.90
2023-05-17T03:50:57.154Z,5.10
2023-05-17T03:51:57.173Z,4.90
2023-05-17T03:52:57.154Z,5.20
2023-05-17T03:53:57.139Z,4.90
2023-05-17T03:54:57.148Z,5.40
2023-05-17T03:55:57.136Z,5.10
2023-05-17T03:56:57.134Z,5.00
2023-05-17T03:57:57.095Z,5.50
2023-05-17T03:58:57.101Z,5.60
2023-05-17T03:59:57.083Z,5.70
2023-05-17T04:00:57.097Z,5.70
2023-05-17T04:01:57.066Z,6.00
2023-05-17T04:02:57.134Z,5.90
2023-05-17T04:03:57.093Z,5.80
2023-05-17T04:04:57.078Z,5.70
2023-05-17T04:05:57.115Z,5.50
2023-05-17T04:06:57.024Z,5.50
2023-05-17T04:07:57.025Z,5.50
2023-05-17T04:08:57.018Z,5.40
2023-05-17T04:09:57.014Z,5.40
2023-05-17T04:10:57.038Z,5.00
2023-05-17T04:11:56.999Z,5.30
2023-05-17T04:12:56.986Z,5.30
2023-05-17T04:13:56.975Z,5.60
2023-05-17T04:14:56.964Z,5.50
2023-05-17T04:15:57.008Z,5.40
2023-05-17T04:16:56.955Z,5.10
2023-05-17T04:17:57.028Z,5.40
2023-05-17T04:18:56.998Z,5.40
2023-05-17T04:19:56.997Z,5.60
2023-05-17T04:20:56.956Z,5.30
2023-05-17T04:21:56.967Z,5.00
2023-05-17T04:22:56.923Z,5.30
2023-05-17T04:23:56.909Z,5.10
2023-05-17T04:24:56.933Z,4.90
2023-05-17T04:25:56.883Z,4.90
2023-05-17T04:26:56.894Z,5.00
2023-05-17T04:27:56.868Z,4.80
2023-05-17T04:28:56.859Z,4.90
2023-05-17T04:29:56.924Z,4.80
2023-05-17T04:30:56.845Z,4.80
2023-05-17T04:31:56.827Z,4.50
2023-05-17T04:32:57.858Z,4.90
2023-05-17T04:33:56.888Z,4.70
2023-05-17T04:34:56.850Z,4.70
2023-05-17T04:35:56.898Z,4.70
2023-05-17T04:36:56.806Z,4.40
2023-05-17T04:37:56.964Z,4.90
2023-05-17T04:38:56.807Z,4.60
2023-05-17T04:39:56.783Z,4.50
2023-05-17T04:40:56.770Z,5.10
2023-05-17T04:41:56.771Z,5.00
2023-05-17T04:42:56.755Z,4.80
2023-05-17T04:43:56.774Z,5.00
2023-05-17T04:44:56.741Z,4.80
2023-05-17T04:45:56.807Z,5.30
2023-05-17T04:46:56.760Z,5.30
2023-05-17T04:47:56.795Z,5.30
2023-05-17T04:48:56.825Z,5.40
2023-05-17T04:49:56.702Z,5.80
2023-05-17T04:50:56.718Z,5.50
2023-05-17T04:51:56.687Z,5.40
2023-05-17T04:52:56.684Z,5.40
2023-05-17T04:53:56.747Z,4.90
2023-05-17T04:54:56.663Z,5.10
2023-05-17T04:55:56.684Z,5.30
2023-05-17T04:56:56.650Z,5.40
2023-05-17T04:57:56.669Z,5.00
2023-05-17T04:58:56.633Z,5.00
2023-05-17T04:59:56.667Z,4.90
2023-05-17T05:00:56.638Z,5.00
2023-05-17T05:01:56.608Z,5.10
2023-05-17T05:02:56.628Z,5.10
2023-05-17T05:03:56.692Z,4.90
2023-05-17T05:04:56.636Z,5.20
2023-05-17T05:05:56.584Z,5.40
2023-05-17T05:06:56.578Z,5.00
2023-05-17T05:07:56.574Z,4.80
2023-05-17T05:08:56.556Z,4.90
2023-05-17T05:09:56.568Z,4.80
2023-05-17T05:10:56.539Z,5.00
2023-05-17T05:11:57.123Z,5.00
2023-05-17T05:12:56.528Z,4.80
2023-05-17T05:13:56.525Z,4.90
2023-05-17T05:14:56.529Z,5.10
2023-05-17T05:15:56.495Z,5.60
2023-05-17T05:16:56.495Z,5.30
2023-05-17T05:17:56.534Z,5.00
2023-05-17T05:18:56.611Z,4.90
2023-05-17T05:19:56.527Z,5.00
2023-05-17T05:20:56.488Z,5.00
2023-05-17T05:21:56.469Z,5.00
2023-05-17T05:22:56.444Z,5.30
2023-05-17T05:23:56.455Z,5.00
2023-05-17T05:24:56.465Z,5.10
2023-05-17T05:25:56.417Z,4.80
2023-05-17T05:26:56.419Z,5.00
2023-05-17T05:27:56.408Z,4.90
2023-05-17T05:28:56.399Z,5.00
2023-05-17T05:29:56.416Z,4.90
2023-05-17T05:30:56.386Z,5.20
2023-05-17T05:31:56.410Z,4.90
2023-05-17T05:32:56.445Z,5.10
2023-05-17T05:33:56.431Z,4.90
2023-05-17T05:34:56.388Z,4.90
2023-05-17T05:35:56.341Z,4.90
2023-05-17T05:36:56.485Z,4.50
2023-05-17T05:37:56.341Z,4.60
2023-05-17T05:38:56.364Z,4.90
2023-05-17T05:39:56.344Z,5.10
2023-05-17T05:40:56.312Z,4.90
2023-05-17T05:41:56.354Z,4.60
2023-05-17T05:42:56.307Z,4.50
2023-05-17T05:43:56.310Z,4.70
2023-05-17T05:44:56.274Z,4.60
2023-05-17T05:45:57.282Z,4.70
2023-05-17T05:46:56.310Z,4.50
2023-05-17T05:47:56.308Z,4.50
2023-05-17T05:48:56.291Z,4.60
2023-05-17T05:49:56.249Z,5.00
2023-05-17T05:50:56.233Z,4.70
2023-05-17T05:51:56.224Z,4.80
2023-05-17T05:53:03.820Z,4.60
2023-05-17T05:53:58.238Z,4.70
2023-05-17T05:54:56.202Z,5.00
2023-05-17T05:55:56.217Z,4.90
2023-05-17T05:56:56.191Z,5.30
2023-05-17T05:57:56.298Z,4.90
2023-05-17T05:58:56.201Z,5.20
2023-05-17T05:59:56.169Z,5.40
2023-05-17T06:00:56.160Z,5.50
2023-05-17T06:01:56.150Z,5.10
2023-05-17T06:02:56.311Z,5.70
2023-05-17T06:03:56.140Z,5.50
2023-05-17T06:04:56.137Z,5.60
2023-05-17T06:05:56.193Z,5.30
2023-05-17T06:06:56.154Z,5.60
2023-05-17T06:07:57.011Z,5.40
2023-05-17T06:08:58.189Z,5.70
2023-05-17T06:09:56.091Z,5.80
2023-05-17T06:10:56.092Z,6.10
2023-05-17T06:11:56.077Z,5.70
2023-05-17T06:12:56.106Z,5.60
2023-05-17T06:13:56.058Z,6.00
2023-05-17T06:14:57.057Z,5.90
2023-05-17T06:15:56.073Z,6.10
2023-05-17T06:16:56.075Z,5.60
2023-05-17T06:17:56.119Z,5.40
2023-05-17T06:18:56.093Z,5.70
2023-05-17T06:19:56.034Z,6.00
2023-05-17T06:20:56.013Z,5.30
2023-05-17T06:21:56.027Z,5.60
2023-05-17T06:22:55.997Z,6.10
2023-05-17T06:23:56.002Z,5.70
2023-05-17T06:24:55.978Z,5.60
2023-05-17T06:25:55.970Z,6.10
2023-05-17T06:26:55.993Z,5.80
2023-05-17T06:27:55.957Z,5.40
2023-05-17T06:28:55.964Z,5.20
2023-05-17T06:29:55.949Z,5.30
2023-05-17T06:30:55.929Z,5.20
2023-05-17T06:31:55.953Z,5.40
2023-05-17T06:32:55.993Z,5.40
2023-05-17T06:33:55.925Z,5.30
2023-05-17T06:34:56.678Z,4.80
2023-05-17T06:35:57.528Z,5.20
2023-05-17T06:36:56.910Z,5.20
2023-05-17T06:37:55.911Z,4.90
2023-05-17T06:38:55.872Z,5.20
2023-05-17T06:40:00.026Z,5.00
2023-05-17T06:40:58.017Z,4.60
2023-05-17T06:41:55.849Z,5.20
2023-05-17T06:42:55.838Z,5.10
2023-05-17T06:43:55.829Z,5.20
2023-05-17T06:44:55.835Z,5.10
2023-05-17T06:45:56.348Z,5.10
2023-05-17T06:46:55.803Z,5.30
2023-05-17T06:47:55.882Z,5.20
2023-05-17T06:48:56.724Z,4.90
2023-05-17T06:49:55.806Z,5.00
2023-05-17T06:50:55.827Z,4.60
2023-05-17T06:51:55.766Z,4.70
2023-05-17T06:52:55.776Z,4.80
2023-05-17T06:53:55.764Z,4.90
2023-05-17T06:54:55.773Z,4.90
2023-05-17T06:55:55.740Z,4.70
2023-05-17T06:56:55.731Z,4.80
2023-05-17T06:57:55.730Z,5.00
2023-05-17T06:58:55.717Z,4.90
2023-05-17T06:59:55.741Z,4.80
2023-05-17T07:00:55.707Z,4.80
2023-05-17T07:01:55.814Z,4.50
2023-05-17T07:02:56.639Z,4.80
2023-05-17T07:03:55.943Z,4.50
2023-05-17T07:04:55.722Z,4.40
2023-05-17T07:05:55.673Z,4.60
2023-05-17T07:06:55.652Z,4.50
2023-05-17T07:07:55.650Z,4.30
2023-05-17T07:08:55.663Z,4.50
2023-05-17T07:09:55.647Z,4.30
2023-05-17T07:10:55.619Z,4.40
2023-05-17T07:11:55.618Z,4.40
2023-05-17T07:12:55.651Z,4.90
2023-05-17T07:13:55.628Z,4.10
2023-05-17T07:14:55.598Z,4.10
2023-05-17T07:15:55.581Z,4.60
2023-05-17T07:16:56.577Z,4.20
2023-05-17T07:17:55.739Z,4.10
2023-05-17T07:18:55.616Z,3.90
2023-05-17T07:19:55.656Z,4.10
2023-05-17T07:20:55.564Z,4.00
2023-05-17T07:21:55.552Z,3.70
2023-05-17T07:22:55.557Z,3.90
2023-05-17T07:23:55.553Z,3.90
2023-05-17T07:24:55.514Z,3.80
2023-05-17T07:25:55.555Z,3.60
2023-05-17T07:26:55.496Z,3.50
2023-05-17T07:27:56.534Z,3.90
2023-05-17T07:28:55.498Z,3.80
2023-05-17T07:29:55.484Z,4.00
2023-05-17T07:30:55.471Z,3.80
2023-05-17T07:31:55.471Z,3.60
2023-05-17T07:32:55.547Z,3.80
2023-05-17T07:33:55.492Z,3.80
2023-05-17T07:34:55.455Z,3.60
2023-05-17T07:35:55.464Z,3.80
2023-05-17T07:36:55.426Z,3.70
2023-05-17T07:37:55.449Z,4.10
2023-05-17T07:38:55.419Z,4.00
2023-05-17T07:39:55.418Z,3.80
2023-05-17T07:40:55.398Z,4.20
2023-05-17T07:41:55.720Z,3.90
2023-05-17T07:42:55.405Z,4.00
2023-05-17T07:43:55.384Z,3.70
2023-05-17T07:44:55.373Z,3.70
2023-05-17T07:45:55.355Z,4.00
2023-05-17T07:46:55.446Z,3.80
2023-05-17T07:47:55.454Z,3.70
2023-05-17T07:48:58.134Z,3.70
2023-05-17T07:49:55.486Z,4.20
2023-05-17T07:50:55.314Z,3.80
2023-05-17T07:51:55.334Z,3.90
2023-05-17T07:52:55.305Z,4.00
2023-05-17T07:53:55.318Z,4.00
2023-05-17T07:54:55.536Z,3.60
2023-05-17T07:55:55.303Z,3.70
2023-05-17T07:56:55.314Z,4.10
2023-05-17T07:57:55.279Z,3.90
2023-05-17T07:58:55.294Z,3.90
2023-05-17T07:59:55.248Z,3.70
2023-05-17T08:00:55.281Z,4.20
2023-05-17T08:01:55.253Z,3.80
2023-05-17T08:02:55.264Z,4.10
2023-05-17T08:03:55.227Z,4.00
2023-05-17T08:04:55.246Z,4.20
2023-05-17T08:05:55.267Z,4.00
2023-05-17T08:06:56.205Z,3.90
2023-05-17T08:07:55.200Z,3.80
2023-05-17T08:08:55.192Z,3.70
2023-05-17T08:09:55.203Z,3.80
2023-05-17T08:10:55.200Z,3.60
2023-05-17T08:11:55.166Z,3.90
2023-05-17T08:12:55.156Z,3.40
2023-05-17T08:13:55.149Z,3.20
2023-05-17T08:14:55.167Z,3.30
2023-05-17T08:16:05.193Z,3.10
2023-05-17T08:16:57.129Z,3.70
2023-05-17T08:17:55.207Z,3.40
2023-05-17T08:18:55.199Z,3.50
2023-05-17T08:19:55.157Z,3.00
2023-05-17T08:20:55.118Z,3.30
2023-05-17T08:21:55.089Z,3.00
2023-05-17T08:22:55.229Z,3.00
2023-05-17T08:23:55.101Z,3.20
2023-05-17T08:24:56.570Z,2.80
2023-05-17T08:25:55.056Z,3.20
2023-05-17T08:26:55.055Z,3.10
2023-05-17T08:27:55.052Z,2.80
2023-05-17T08:28:55.099Z,2.80
2023-05-17T08:29:55.027Z,3.10
2023-05-17T08:30:55.029Z,3.00
2023-05-17T08:31:55.555Z,2.90
2023-05-17T08:32:55.120Z,2.70
2023-05-17T08:33:55.039Z,2.70
2023-05-17T08:34:54.997Z,2.90
2023-05-17T08:35:55.964Z,3.00
2023-05-17T08:36:55.001Z,3.00
2023-05-17T08:37:54.995Z,2.90
2023-05-17T08:38:54.982Z,3.00
2023-05-17T08:39:54.959Z,2.80
2023-05-17T08:40:54.945Z,2.80
2023-05-17T08:41:54.930Z,2.70
2023-05-17T08:42:54.955Z,2.80
2023-05-17T08:43:54.938Z,2.60
2023-05-17T08:44:54.934Z,2.50
2023-05-17T08:45:54.906Z,2.80
2023-05-17T08:46:54.899Z,2.80
2023-05-17T08:47:54.980Z,2.90
2023-05-17T08:48:54.985Z,2.70
2023-05-17T08:49:54.871Z,2.70
2023-05-17T08:50:54.877Z,2.80
2023-05-17T08:51:54.855Z,2.50
2023-05-17T08:52:54.932Z,2.40
2023-05-17T08:53:55.011Z,2.90
2023-05-17T08:54:55.825Z,2.70
2023-05-17T08:55:54.826Z,2.70
2023-05-17T08:56:54.812Z,2.50
2023-05-17T08:57:54.839Z,2.80
2023-05-17T08:58:57.204Z,2.90
2023-05-17T08:59:55.792Z,2.80
2023-05-17T09:00:54.788Z,2.70
2023-05-17T09:01:54.820Z,2.60
2023-05-17T09:02:54.855Z,2.80
2023-05-17T09:03:54.928Z,2.80
2023-05-17T09:04:54.846Z,2.50
2023-05-17T09:05:54.826Z,2.90
2023-05-17T09:06:54.775Z,2.70
2023-05-17T09:07:54.729Z,2.70
2023-05-17T09:08:54.919Z,2.90
2023-05-17T09:09:54.727Z,2.70
2023-05-17T09:10:54.712Z,3.10
2023-05-17T09:11:54.758Z,2.90
2023-05-17T09:12:54.689Z,3.00
2023-05-17T09:13:54.685Z,3.10
2023-05-17T09:14:54.681Z,3.00
2023-05-17T09:15:54.672Z,3.20
2023-05-17T09:16:54.689Z,2.90
2023-05-17T09:17:54.795Z,3.00
2023-05-17T09:18:57.243Z,3.10
2023-05-17T09:19:54.785Z,2.90
2023-05-17T09:20:54.643Z,3.00
2023-05-17T09:21:54.655Z,3.10
2023-05-17T09:22:54.621Z,3.20
2023-05-17T09:24:05.600Z,3.20
2023-05-17T09:24:56.608Z,2.80
2023-05-17T09:25:54.628Z,3.00
2023-05-17T09:26:54.689Z,3.30
2023-05-17T09:27:54.581Z,2.90
2023-05-17T09:28:54.574Z,3.00
2023-05-17T09:29:54.573Z,2.90
2023-05-17T09:30:54.591Z,3.00
2023-05-17T09:31:54.558Z,3.00
2023-05-17T09:32:54.555Z,2.80
2023-05-17T09:33:54.582Z,3.10
2023-05-17T09:34:54.532Z,2.60
2023-05-17T09:35:54.552Z,2.70
2023-05-17T09:36:54.524Z,2.40
2023-05-17T09:37:54.513Z,2.30
2023-05-17T09:38:54.506Z,2.90
2023-05-17T09:39:54.527Z,2.50
2023-05-17T09:40:54.515Z,2.80
2023-05-17T09:41:54.481Z,2.90
2023-05-17T09:42:54.480Z,2.90
2023-05-17T09:43:54.462Z,2.70
2023-05-17T09:44:54.522Z,2.80
2023-05-17T09:45:54.488Z,2.70
2023-05-17T09:46:54.451Z,2.70
2023-05-17T09:47:54.562Z,2.80
2023-05-17T09:48:54.545Z,2.80
2023-05-17T09:49:54.462Z,2.80
2023-05-17T09:50:54.418Z,2.90
2023-05-17T09:51:54.408Z,2.90
2023-05-17T09:52:54.416Z,2.70
2023-05-17T09:53:54.397Z,2.90
2023-05-17T09:54:54.426Z,3.30
2023-05-17T09:55:54.384Z,2.70
2023-05-17T09:56:54.371Z,2.80
2023-05-17T09:57:54.357Z,2.60
2023-05-17T09:58:54.355Z,2.70
2023-05-17T09:59:54.376Z,2.90
2023-05-17T10:00:54.354Z,2.60
2023-05-17T10:01:54.379Z,2.70
2023-05-17T10:02:54.447Z,2.90
2023-05-17T10:03:54.386Z,2.70
2023-05-17T10:04:54.332Z,2.60
2023-05-17T10:05:54.313Z,2.60
2023-05-17T10:06:54.291Z,2.80
2023-05-17T10:07:54.286Z,2.70
2023-05-17T10:08:54.708Z,2.60
2023-05-17T10:09:54.273Z,2.50
2023-05-17T10:10:54.257Z,2.50
2023-05-17T10:11:54.255Z,2.80
2023-05-17T10:12:54.253Z,2.50
2023-05-17T10:13:54.271Z,2.40
2023-05-17T10:14:54.319Z,2.50
2023-05-17T10:15:55.234Z,2.50
2023-05-17T10:16:54.244Z,2.60
2023-05-17T10:17:54.315Z,2.70
2023-05-17T10:18:54.279Z,2.70
2023-05-17T10:19:54.322Z,2.50
2023-05-17T10:20:54.194Z,2.50
2023-05-17T10:21:54.177Z,2.90
2023-05-17T10:22:54.198Z,3.60
2023-05-17T10:23:54.180Z,3.10
2023-05-17T10:24:54.214Z,2.70
2023-05-17T10:25:54.149Z,3.00
2023-05-17T10:26:54.157Z,2.80
2023-05-17T10:27:54.166Z,3.00
2023-05-17T10:28:54.124Z,3.10
2023-05-17T10:29:54.131Z,2.90
2023-05-17T10:30:54.110Z,2.80
2023-05-17T10:31:54.099Z,2.80
2023-05-17T10:32:54.243Z,2.80
2023-05-17T10:33:54.192Z,2.80
2023-05-17T10:35:05.892Z,2.90
2023-05-17T10:35:56.079Z,2.70
2023-05-17T10:36:54.093Z,2.50
2023-05-17T10:37:54.085Z,2.60
2023-05-17T10:38:54.053Z,2.80
2023-05-17T10:39:54.038Z,2.70
2023-05-17T10:40:54.041Z,2.80
2023-05-17T10:41:57.986Z,2.80
2023-05-17T10:42:55.023Z,2.70
2023-05-17T10:43:54.007Z,2.50
2023-05-17T10:44:54.007Z,3.00
2023-05-17T10:45:54.053Z,2.80
2023-05-17T10:46:54.005Z,2.70
2023-05-17T10:47:54.006Z,2.50
2023-05-17T10:48:54.006Z,2.90
2023-05-17T10:49:53.962Z,2.80
2023-05-17T10:51:00.973Z,2.80
2023-05-17T10:51:55.979Z,2.70
2023-05-17T10:52:53.939Z,2.90
2023-05-17T10:53:53.928Z,2.80
2023-05-17T10:55:27.868Z,2.60
2023-05-17T10:55:53.938Z,2.70
2023-05-17T10:56:53.933Z,3.00
2023-05-17T10:57:53.899Z,3.10
2023-05-17T10:58:53.888Z,2.70
2023-05-17T10:59:53.884Z,2.80
2023-05-17T11:00:55.299Z,2.70
2023-05-17T11:01:54.869Z,2.70
2023-05-17T11:02:53.910Z,2.70
2023-05-17T11:03:53.853Z,2.50
2023-05-17T11:04:53.911Z,2.80
2023-05-17T11:05:54.268Z,2.70
2023-05-17T11:06:54.002Z,2.60
2023-05-17T11:07:53.810Z,2.70
2023-05-17T11:08:53.818Z,2.60
2023-05-17T11:09:53.812Z,2.50
2023-05-17T11:10:53.828Z,2.50
2023-05-17T11:11:53.792Z,2.60
2023-05-17T11:12:53.830Z,3.80
2023-05-17T11:13:53.789Z,2.80
2023-05-17T11:14:53.809Z,2.80
2023-05-17T11:15:53.824Z,2.90
2023-05-17T11:16:55.036Z,3.00
2023-05-17T11:17:53.828Z,3.00
2023-05-17T11:18:53.814Z,3.10
2023-05-17T11:19:53.806Z,3.10
2023-05-17T11:20:53.851Z,3.00
2023-05-17T11:21:53.722Z,3.10
2023-05-17T11:22:53.711Z,3.20
2023-05-17T11:23:53.694Z,3.00
2023-05-17T11:24:53.717Z,3.00
2023-05-17T11:25:54.954Z,3.00
2023-05-17T11:26:54.680Z,3.20
2023-05-17T11:27:53.666Z,3.00
2023-05-17T11:28:53.672Z,2.80
2023-05-17T11:29:53.682Z,2.90
2023-05-17T11:30:53.847Z,2.80
2023-05-17T11:31:53.642Z,2.70
2023-05-17T11:32:53.697Z,2.90
2023-05-17T11:33:53.680Z,2.70
2023-05-17T11:34:53.647Z,2.60
2023-05-17T11:35:53.618Z,2.70
2023-05-17T11:36:53.608Z,2.90
2023-05-17T11:37:53.609Z,2.60
2023-05-17T11:39:01.404Z,2.90
2023-05-17T11:39:56.536Z,3.00
2023-05-17T11:40:53.581Z,3.10
2023-05-17T11:41:53.578Z,3.10
2023-05-17T11:42:53.564Z,3.00
2023-05-17T11:43:53.591Z,3.00
2023-05-17T11:44:53.575Z,3.10
2023-05-17T11:45:53.885Z,3.10
2023-05-17T11:46:53.536Z,3.00
2023-05-17T11:47:53.630Z,2.60
2023-05-17T11:48:53.925Z,2.90
2023-05-17T11:49:55.680Z,2.80
2023-05-17T11:50:54.528Z,2.80
2023-05-17T11:51:53.525Z,2.70
2023-05-17T11:52:53.517Z,3.20
2023-05-17T11:53:53.621Z,3.00
2023-05-17T11:54:53.474Z,2.80
2023-05-17T11:55:53.468Z,3.30
2023-05-17T11:56:53.458Z,2.90
2023-05-17T11:57:53.470Z,2.80
2023-05-17T11:58:53.439Z,3.20
2023-05-17T11:59:53.430Z,2.90
2023-05-17T12:00:53.487Z,2.70
2023-05-17T12:01:53.440Z,2.70
2023-05-17T12:02:53.465Z,2.60
2023-05-17T12:03:53.397Z,2.80
2023-05-17T12:04:53.431Z,3.00
2023-05-17T12:05:54.293Z,2.70
2023-05-17T12:06:53.655Z,2.70
2023-05-17T12:07:53.395Z,2.70
2023-05-17T12:08:53.393Z,2.80
2023-05-17T12:09:53.351Z,2.60
2023-05-17T12:10:53.387Z,2.80
2023-05-17T12:11:53.372Z,2.90
2023-05-17T12:12:53.369Z,2.60
2023-05-17T12:13:53.328Z,3.10
2023-05-17T12:14:53.330Z,2.70
2023-05-17T12:15:53.341Z,3.00
2023-05-17T12:16:53.334Z,2.90
2023-05-17T12:17:53.515Z,2.90
2023-05-17T12:18:53.405Z,2.80
2023-05-17T12:19:53.337Z,2.50
2023-05-17T12:20:53.279Z,3.10
2023-05-17T12:21:53.411Z,2.80
2023-05-17T12:22:53.250Z,2.70
2023-05-17T12:23:53.239Z,2.80
2023-05-17T12:24:54.163Z,2.50
2023-05-17T12:25:53.231Z,3.00
2023-05-17T12:26:53.246Z,2.80
2023-05-17T12:27:53.214Z,2.40
2023-05-17T12:28:53.256Z,2.60
2023-05-17T12:29:53.193Z,2.60
2023-05-17T12:30:53.253Z,2.30
2023-05-17T12:31:53.226Z,2.70
2023-05-17T12:32:53.311Z,3.50
2023-05-17T12:33:53.310Z,5.00
2023-05-17T12:34:53.149Z,2.90
2023-05-17T12:35:53.177Z,2.50
2023-05-17T12:36:53.137Z,2.50
2023-05-17T12:37:53.140Z,2.40
2023-05-17T12:38:53.128Z,2.40
2023-05-17T12:39:53.121Z,2.50
2023-05-17T12:40:54.145Z,2.70
2023-05-17T12:41:53.106Z,2.70
2023-05-17T12:42:53.096Z,2.50
2023-05-17T12:43:55.018Z,2.80
2023-05-17T12:44:55.101Z,2.70
2023-05-17T12:45:53.149Z,2.60
2023-05-17T12:46:53.063Z,2.60
2023-05-17T12:47:53.107Z,3.30
2023-05-17T12:48:53.141Z,2.30
2023-05-17T12:49:53.090Z,2.50
2023-05-17T12:50:53.033Z,2.40
2023-05-17T12:51:53.027Z,2.20
2023-05-17T12:52:53.020Z,2.30
2023-05-17T12:53:53.037Z,2.20
2023-05-17T12:54:53.028Z,2.40
2023-05-17T12:55:52.996Z,2.20
2023-05-17T12:56:52.986Z,2.20
2023-05-17T12:57:52.982Z,2.50
2023-05-17T12:58:53.036Z,2.50
2023-05-17T12:59:52.991Z,2.30
2023-05-17T13:00:52.962Z,2.20
2023-05-17T13:01:52.947Z,2.40
2023-05-17T13:02:53.047Z,2.10
2023-05-17T13:03:53.084Z,2.50
2023-05-17T13:04:53.019Z,2.30
2023-05-17T13:05:52.929Z,2.50
2023-05-17T13:06:52.919Z,2.40
2023-05-17T13:07:52.918Z,2.30
2023-05-17T13:08:52.922Z,2.30
2023-05-17T13:09:52.910Z,2.20
2023-05-17T13:10:52.885Z,2.50
2023-05-17T13:11:52.887Z,2.10
2023-05-17T13:12:52.877Z,2.00
2023-05-17T13:13:52.893Z,2.20
2023-05-17T13:14:52.870Z,2.30
2023-05-17T13:15:52.847Z,2.10
2023-05-17T13:16:52.942Z,2.30
2023-05-17T13:17:52.921Z,2.60
2023-05-17T13:18:53.017Z,2.50